Time;durP1;ratioP1;P1;durP2;ratioP2;P2;SDS_P1;SDS_P2;PMS_P1;PMS_P2;Temp;Humidity;BMP_temperature;BMP_pressure;BME280_temperature;BME280_humidity;BME280_pressure;Samples;Min_cycle;Max_cycle;Signal;HPM_P1;HPM_P2
2023/01/06 00:02:23;;;;;;;33.13;17.98;;;10.00;99.90;;;;;;5020915;28;20042;-75
2023/01/06 00:04:48;;;;;;;30.83;18.77;;;10.00;99.90;;;;;;5003824;28;20042;-74
2023/01/06 00:07:14;;;;;;;31.13;18.48;;;10.00;99.90;;;;;;5013106;28;20128;-74
2023/01/06 00:09:40;;;;;;;41.55;18.90;;;10.00;99.90;;;;;;5014101;28;20033;-74
2023/01/06 00:12:07;;;;;;;29.83;19.00;;;10.00;99.90;;;;;;5009516;28;20045;-75
2023/01/06 00:14:32;;;;;;;29.98;18.10;;;10.00;99.90;;;;;;5009343;28;20033;-75
2023/01/06 00:16:58;;;;;;;25.40;16.73;;;10.00;99.90;;;;;;5018123;28;20041;-74
2023/01/06 00:19:23;;;;;;;23.92;16.50;;;10.00;99.90;;;;;;5000347;28;20033;-75
2023/01/06 00:21:49;;;;;;;28.83;16.58;;;10.00;99.90;;;;;;5007085;28;20037;-75
2023/01/06 00:24:15;;;;;;;24.33;16.48;;;10.00;99.90;;;;;;5006151;28;20096;-75
2023/01/06 00:26:40;;;;;;;20.08;15.63;;;10.00;99.90;;;;;;4998472;28;20041;-75
2023/01/06 00:29:08;;;;;;;25.92;16.67;;;10.00;99.90;;;;;;4996297;28;20555;-75
2023/01/06 00:31:36;;;;;;;24.45;15.73;;;10.00;99.90;;;;;;4997497;28;20098;-75
2023/01/06 00:34:02;;;;;;;19.02;14.93;;;10.00;99.90;;;;;;5002107;28;20432;-75
2023/01/06 00:36:27;;;;;;;17.92;13.02;;;10.00;99.90;;;;;;5017772;28;20037;-75
2023/01/06 00:38:53;;;;;;;21.25;14.27;;;10.00;99.90;;;;;;5017478;28;20052;-75
2023/01/06 00:44:03;;;;;;;22.67;13.95;;;10.00;99.90;;;;;;5012175;28;20041;-74
2023/01/06 00:46:30;;;;;;;19.50;13.82;;;10.00;99.90;;;;;;4997540;28;20142;-74
2023/01/06 00:48:56;;;;;;;22.02;14.10;;;10.00;99.90;;;;;;5013466;28;20045;-75
2023/01/06 00:51:22;;;;;;;22.38;14.48;;;10.00;99.90;;;;;;5007995;28;20117;-74
2023/01/06 00:53:48;;;;;;;21.65;14.05;;;9.90;99.90;;;;;;5000347;28;20124;-75
2023/01/06 00:56:13;;;;;;;22.67;14.55;;;10.00;99.90;;;;;;4996748;28;20040;-74
2023/01/06 00:58:39;;;;;;;22.00;14.63;;;9.90;99.90;;;;;;5006846;28;20077;-74
2023/01/06 01:01:06;;;;;;;23.67;13.77;;;9.90;99.90;;;;;;5002191;28;20532;-74
2023/01/06 01:03:33;;;;;;;24.08;14.00;;;9.90;99.90;;;;;;5016244;28;20480;-75
2023/01/06 01:06:00;;;;;;;25.55;14.05;;;9.90;99.90;;;;;;5015063;28;20037;-75
2023/01/06 01:08:25;;;;;;;18.00;13.07;;;9.90;99.90;;;;;;5017025;28;20041;-73
2023/01/06 01:10:51;;;;;;;21.23;14.00;;;9.90;99.90;;;;;;4999231;28;20086;-74
2023/01/06 01:13:17;;;;;;;21.67;13.73;;;9.90;99.90;;;;;;5023619;28;20053;-74
2023/01/06 01:15:43;;;;;;;20.98;13.13;;;9.90;99.90;;;;;;4981695;28;20038;-75
2023/01/06 01:18:08;;;;;;;18.45;12.60;;;9.90;99.90;;;;;;4981528;28;20056;-74
2023/01/06 01:20:34;;;;;;;20.35;12.18;;;9.90;99.90;;;;;;4981543;28;20042;-74
2023/01/06 01:23:00;;;;;;;15.95;11.45;;;9.90;99.90;;;;;;5008848;28;20037;-74
2023/01/06 01:25:25;;;;;;;15.35;11.02;;;9.90;99.90;;;;;;5016442;28;20072;-75
2023/01/06 01:27:51;;;;;;;17.70;11.38;;;9.90;99.90;;;;;;5025542;28;20041;-75
2023/01/06 01:30:19;;;;;;;16.10;11.82;;;9.90;99.90;;;;;;5037173;28;20041;-75
2023/01/06 01:32:45;;;;;;;16.65;11.00;;;9.90;99.90;;;;;;4993700;28;20433;-74
2023/01/06 01:35:11;;;;;;;16.88;10.20;;;9.90;99.90;;;;;;5014864;28;20040;-74
2023/01/06 01:37:37;;;;;;;15.27;10.02;;;9.80;99.90;;;;;;5017270;28;20521;-74
2023/01/06 01:40:03;;;;;;;15.98;9.90;;;9.90;99.90;;;;;;5001092;28;20048;-74
2023/01/06 01:42:29;;;;;;;14.55;9.77;;;9.80;99.90;;;;;;5014297;28;20040;-74
2023/01/06 01:45:05;;;;;;;14.55;9.15;;;9.80;99.90;;;;;;5005023;28;20048;-75
2023/01/06 01:47:33;;;;;;;13.82;9.13;;;9.80;99.90;;;;;;4996617;28;20034;-73
2023/01/06 01:50:15;;;;;;;12.98;8.77;;;9.90;99.90;;;;;;5002501;28;20479;-75
2023/01/06 01:52:43;;;;;;;13.52;8.30;;;9.80;99.90;;;;;;5001634;28;20041;-74
2023/01/06 01:55:10;;;;;;;12.48;8.18;;;9.80;99.90;;;;;;5012245;28;20118;-75
2023/01/06 01:57:46;;;;;;;14.00;7.97;;;9.70;99.90;;;;;;5010221;28;20041;-75
2023/01/06 02:00:13;;;;;;;13.18;8.55;;;9.70;99.90;;;;;;4991882;28;20033;-75
2023/01/06 02:02:40;;;;;;;12.68;8.27;;;9.70;99.90;;;;;;4993590;28;20045;-75
2023/01/06 02:05:06;;;;;;;12.43;8.30;;;9.70;99.90;;;;;;5000491;28;20041;-75
2023/01/06 02:07:32;;;;;;;12.43;7.75;;;9.70;99.90;;;;;;5003818;28;20048;-75
2023/01/06 02:10:03;;;;;;;13.63;8.93;;;9.70;99.90;;;;;;5019150;28;20438;-75
2023/01/06 02:12:30;;;;;;;11.00;7.32;;;9.80;99.90;;;;;;4992457;28;20065;-74
2023/01/06 02:14:55;;;;;;;10.68;7.65;;;9.80;99.90;;;;;;5008217;28;20034;-74
2023/01/06 02:17:27;;;;;;;12.05;7.38;;;9.80;99.90;;;;;;5002580;28;20573;-75
2023/01/06 02:20:16;;;;;;;12.73;7.07;;;9.80;99.90;;;;;;4997516;28;20100;-74
2023/01/06 02:23:06;;;;;;;10.02;6.75;;;9.80;99.90;;;;;;5010871;28;20043;-74
2023/01/06 02:25:53;;;;;;;11.25;6.90;;;9.80;99.90;;;;;;5007170;28;20507;-74
2023/01/06 02:28:40;;;;;;;12.75;7.22;;;9.90;99.90;;;;;;4996405;28;20398;-74
2023/01/06 02:31:25;;;;;;;13.65;7.15;;;9.90;99.90;;;;;;5001241;28;20137;-74
2023/01/06 02:34:15;;;;;;;10.40;6.97;;;9.80;99.90;;;;;;5006605;28;20037;-75
2023/01/06 02:37:05;;;;;;;12.70;7.80;;;9.80;99.90;;;;;;5008828;28;20081;-75
2023/01/06 02:39:48;;;;;;;9.25;6.95;;;9.90;99.90;;;;;;5044033;28;20076;-73
2023/01/06 02:42:34;;;;;;;10.93;7.57;;;9.90;99.90;;;;;;5013586;28;20430;-75
2023/01/06 02:45:03;;;;;;;10.23;7.38;;;9.90;99.90;;;;;;5022025;28;20045;-75
2023/01/06 02:47:54;;;;;;;12.00;7.43;;;9.80;99.90;;;;;;5029922;28;20495;-75
2023/01/06 02:50:41;;;;;;;11.85;7.38;;;9.80;99.90;;;;;;5013365;28;20034;-75
2023/01/06 02:53:33;;;;;;;8.98;7.95;;;9.90;99.90;;;;;;5000268;28;20060;-75
2023/01/06 02:55:59;;;;;;;7.93;7.13;;;9.90;99.90;;;;;;5011852;28;20092;-74
2023/01/06 02:58:56;;;;;;;9.48;7.38;;;9.90;99.90;;;;;;5005552;28;20557;-75
2023/01/06 03:01:24;;;;;;;9.40;7.40;;;9.90;99.90;;;;;;5008421;28;20041;-74
2023/01/06 03:03:52;;;;;;;9.13;8.23;;;9.90;99.90;;;;;;5010859;28;20037;-77
2023/01/06 03:06:25;;;;;;;11.23;8.68;;;9.80;99.90;;;;;;5015845;28;20041;-75
2023/01/06 03:08:52;;;;;;;;;;;9.90;99.90;;;;;;4999362;28;20038;-75
2023/01/06 03:11:17;;;;;;;10.38;8.45;;;9.90;99.90;;;;;;4999084;28;19925;-75
2023/01/06 03:14:09;;;;;;;11.60;8.77;;;9.80;99.90;;;;;;5022134;28;20404;-75
2023/01/06 03:16:34;;;;;;;10.10;8.35;;;9.80;99.90;;;;;;4997719;28;20120;-75
2023/01/06 03:19:00;;;;;;;11.32;9.43;;;9.80;99.90;;;;;;5021613;28;20136;-75
2023/01/06 03:21:32;;;;;;;11.50;9.02;;;9.90;99.90;;;;;;5010078;28;20044;-75
2023/01/06 03:23:58;;;;;;;11.98;8.68;;;9.90;99.90;;;;;;5006189;28;20037;-75
2023/01/06 03:26:24;;;;;;;9.82;8.13;;;9.90;99.90;;;;;;5018541;28;20190;-75
2023/01/06 03:28:50;;;;;;;9.60;8.40;;;9.80;99.90;;;;;;5006138;28;20041;-75
2023/01/06 03:31:22;;;;;;;10.13;8.10;;;10.00;99.90;;;;;;4999544;28;20471;-75
2023/01/06 03:33:53;;;;;;;11.23;8.55;;;9.90;99.90;;;;;;5001316;28;20124;-74
2023/01/06 03:36:46;;;;;;;8.63;7.72;;;9.90;99.90;;;;;;4979476;28;20038;-75
2023/01/06 03:39:18;;;;;;;8.90;7.38;;;9.90;99.90;;;;;;4992850;28;20518;-74
2023/01/06 03:45:13;;;;;;;8.48;7.55;;;9.90;99.90;;;;;;5019950;28;20052;-75
2023/01/06 03:47:49;;;;;;;8.73;7.82;;;9.80;99.90;;;;;;5018351;28;20041;-75
2023/01/06 03:50:23;;;;;;;9.30;6.93;;;9.90;99.90;;;;;;5018583;28;20094;-74
2023/01/06 03:52:58;;;;;;;7.18;6.43;;;9.90;99.90;;;;;;5011377;28;20046;-74
2023/01/06 03:55:29;;;;;;;7.05;6.35;;;9.90;99.90;;;;;;4982163;28;20042;-75
2023/01/06 03:57:56;;;;;;;7.38;6.00;;;9.80;99.90;;;;;;5006179;28;20081;-75
2023/01/06 04:00:31;;;;;;;9.80;7.00;;;9.80;99.90;;;;;;5024733;28;20379;-75
2023/01/06 04:02:59;;;;;;;7.35;6.22;;;9.80;99.90;;;;;;5011520;28;20041;-74
2023/01/06 04:05:27;;;;;;;8.10;6.15;;;9.80;99.90;;;;;;5013423;28;20041;-75
2023/01/06 04:07:53;;;;;;;8.38;6.55;;;9.80;99.90;;;;;;5028455;28;20052;-75
2023/01/06 04:10:20;;;;;;;7.85;6.20;;;9.80;99.90;;;;;;5001733;28;20064;-75
2023/01/06 04:12:46;;;;;;;9.88;6.45;;;9.80;99.90;;;;;;5029442;28;20072;-75
2023/01/06 04:15:18;;;;;;;9.27;6.88;;;9.90;99.90;;;;;;5025878;28;20545;-75
2023/01/06 04:17:46;;;;;;;7.95;7.15;;;9.80;99.90;;;;;;5051727;28;20075;-74
2023/01/06 04:20:16;;;;;;;7.82;7.10;;;9.80;99.90;;;;;;5014340;28;20041;-75
2023/01/06 04:22:42;;;;;;;9.43;8.30;;;9.80;99.90;;;;;;5011425;28;20077;-75
2023/01/06 04:25:08;;;;;;;10.07;9.18;;;9.80;99.90;;;;;;5024839;28;20072;-75
2023/01/06 04:27:33;;;;;;;10.82;9.90;;;9.80;99.90;;;;;;5033897;28;20451;-75
2023/01/06 04:29:59;;;;;;;12.23;10.90;;;9.80;99.90;;;;;;5033656;28;20120;-75
2023/01/06 04:32:25;;;;;;;11.20;10.10;;;9.80;99.90;;;;;;5002636;28;20389;-75
2023/01/06 04:34:50;;;;;;;11.57;10.48;;;9.90;99.90;;;;;;5002704;28;20113;-75
2023/01/06 04:37:16;;;;;;;12.20;11.00;;;9.80;99.90;;;;;;5010218;28;20034;-75
2023/01/06 04:39:42;;;;;;;13.10;11.38;;;9.80;99.90;;;;;;5012189;28;20168;-75
2023/01/06 04:42:07;;;;;;;13.90;11.25;;;9.80;99.90;;;;;;5009167;28;20049;-75
2023/01/06 04:44:33;;;;;;;11.82;10.40;;;9.90;99.90;;;;;;5012760;28;20104;-75
2023/01/06 04:46:59;;;;;;;12.10;10.85;;;9.80;99.90;;;;;;4999422;28;20045;-74
2023/01/06 04:49:24;;;;;;;9.82;8.70;;;9.90;99.90;;;;;;5007976;28;20057;-75
2023/01/06 04:51:50;;;;;;;8.65;7.85;;;9.80;99.90;;;;;;5023893;28;20034;-75
2023/01/06 04:54:16;;;;;;;8.35;7.53;;;9.90;99.90;;;;;;5017748;28;20098;-75
2023/01/06 04:56:42;;;;;;;8.80;7.30;;;9.90;99.90;;;;;;5001401;28;20040;-75
2023/01/06 04:59:07;;;;;;;7.65;5.72;;;9.90;99.90;;;;;;5017563;28;20191;-75
2023/01/06 05:01:33;;;;;;;5.15;4.65;;;9.90;99.90;;;;;;5018969;28;20048;-75
2023/01/06 05:03:59;;;;;;;5.88;4.93;;;9.90;99.90;;;;;;5014566;28;20530;-75
2023/01/06 05:06:24;;;;;;;6.63;4.53;;;9.90;99.90;;;;;;5001757;28;20166;-75
2023/01/06 05:08:50;;;;;;;6.65;4.20;;;9.90;99.90;;;;;;5028803;28;20135;-75
2023/01/06 05:11:23;;;;;;;6.78;3.78;;;9.90;99.90;;;;;;5036242;28;20495;-75
2023/01/06 05:13:49;;;;;;;4.20;3.53;;;9.90;99.90;;;;;;5012253;28;20492;-75
2023/01/06 05:16:22;;;;;;;5.40;3.60;;;10.00;99.90;;;;;;5035199;28;20037;-75
2023/01/06 05:18:48;;;;;;;6.43;3.50;;;10.00;99.90;;;;;;5017411;28;20041;-75
2023/01/06 05:21:13;;;;;;;5.03;3.53;;;10.00;99.90;;;;;;5035147;28;20432;-75
2023/01/06 05:23:39;;;;;;;4.50;3.70;;;10.00;99.90;;;;;;5018694;28;20499;-75
2023/01/06 05:26:05;;;;;;;7.63;4.18;;;10.00;99.90;;;;;;5009589;28;20037;-75
2023/01/06 05:28:31;;;;;;;5.45;4.93;;;10.00;99.90;;;;;;5016994;28;20051;-75
2023/01/06 05:31:02;;;;;;;6.15;5.13;;;10.00;99.90;;;;;;5017221;28;20055;-75
2023/01/06 05:33:28;;;;;;;10.00;5.78;;;10.00;99.90;;;;;;5042055;28;20029;-75
2023/01/06 05:36:08;;;;;;;6.03;5.25;;;10.00;99.90;;;;;;5042076;28;20046;-74
2023/01/06 05:38:33;;;;;;;6.95;5.22;;;10.00;99.90;;;;;;5037462;28;20049;-75
2023/01/06 05:40:59;;;;;;;7.40;4.97;;;9.90;99.90;;;;;;5027396;28;20468;-75
2023/01/06 05:43:26;;;;;;;6.85;5.70;;;10.00;99.90;;;;;;4999214;28;20518;-75
2023/01/06 05:45:53;;;;;;;7.18;6.25;;;10.00;99.90;;;;;;5032848;28;20038;-75
2023/01/06 05:48:19;;;;;;;7.05;6.30;;;10.00;99.90;;;;;;5006603;28;20163;-75
2023/01/06 05:50:44;;;;;;;6.68;6.05;;;10.00;99.90;;;;;;5012964;28;20050;-75
2023/01/06 05:53:10;;;;;;;7.65;6.32;;;10.00;99.90;;;;;;5012492;28;20087;-75
2023/01/06 05:55:36;;;;;;;6.45;5.95;;;10.00;99.90;;;;;;5019061;28;20047;-75
2023/01/06 05:58:01;;;;;;;7.80;6.25;;;10.00;99.90;;;;;;5015432;28;20120;-75
2023/01/06 06:00:27;;;;;;;7.13;6.43;;;10.10;99.90;;;;;;5000330;28;20041;-75
2023/01/06 06:02:54;;;;;;;7.22;6.20;;;10.00;99.90;;;;;;5023917;28;20477;-75
2023/01/06 06:05:19;;;;;;;6.60;6.10;;;10.00;99.90;;;;;;5009815;28;20403;-75
2023/01/06 06:07:52;;;;;;;6.90;6.30;;;10.00;99.90;;;;;;5016563;28;20045;-75
2023/01/06 06:10:17;;;;;;;7.70;6.28;;;10.00;99.90;;;;;;5016517;28;20439;-75
2023/01/06 06:12:43;;;;;;;9.82;6.32;;;10.00;99.90;;;;;;5015325;28;20042;-75
2023/01/06 06:15:09;;;;;;;7.88;6.40;;;10.00;99.90;;;;;;4989869;28;20053;-75
2023/01/06 06:17:34;;;;;;;7.47;6.75;;;10.00;99.90;;;;;;5005612;28;20061;-75
2023/01/06 06:20:00;;;;;;;7.35;6.70;;;9.90;99.90;;;;;;5016526;28;20071;-75
2023/01/06 06:22:26;;;;;;;8.75;7.28;;;9.90;99.90;;;;;;5000062;28;20037;-75
2023/01/06 06:24:51;;;;;;;8.27;7.47;;;9.90;99.90;;;;;;5021045;28;20462;-75
2023/01/06 06:27:17;;;;;;;8.85;7.75;;;9.80;99.90;;;;;;4998690;28;20045;-74
2023/01/06 06:29:42;;;;;;;9.93;8.13;;;9.80;99.90;;;;;;4998985;28;20064;-74
2023/01/06 06:32:08;;;;;;;9.57;8.52;;;9.80;99.90;;;;;;5010938;28;20068;-74
2023/01/06 06:34:33;;;;;;;9.90;8.90;;;9.70;99.90;;;;;;5025089;28;20037;-74
2023/01/06 06:36:59;;;;;;;10.55;9.38;;;9.70;99.90;;;;;;5027333;28;20037;-74
2023/01/06 06:39:25;;;;;;;11.10;9.32;;;9.70;99.90;;;;;;5034779;28;20037;-74
2023/01/06 06:41:50;;;;;;;10.88;9.80;;;9.60;99.90;;;;;;4999319;28;20053;-74
2023/01/06 06:44:16;;;;;;;10.95;9.93;;;9.60;99.90;;;;;;4997643;28;20047;-74
2023/01/06 06:46:41;;;;;;;10.68;9.68;;;9.60;99.90;;;;;;5010953;28;20047;-74
2023/01/06 06:49:07;;;;;;;11.27;10.25;;;9.50;99.90;;;;;;5018823;28;20071;-75
2023/01/06 06:51:33;;;;;;;11.98;10.23;;;9.50;99.90;;;;;;4996159;28;20104;-74
2023/01/06 06:53:58;;;;;;;11.75;10.55;;;9.50;99.90;;;;;;4996768;28;20041;-74
2023/01/06 06:56:24;;;;;;;12.32;11.10;;;9.60;99.90;;;;;;5012974;28;20120;-74
2023/01/06 06:58:49;;;;;;;11.98;10.75;;;9.50;99.90;;;;;;5004228;28;20037;-74
2023/01/06 07:01:17;;;;;;;12.35;11.18;;;9.60;99.90;;;;;;4990981;28;20088;-74
2023/01/06 07:03:43;;;;;;;12.80;11.63;;;9.50;99.90;;;;;;4994814;28;20464;-74
2023/01/06 07:06:12;;;;;;;14.07;12.60;;;9.50;99.90;;;;;;4997819;28;20037;-75
2023/01/06 07:08:41;;;;;;;12.80;11.57;;;9.50;99.90;;;;;;5003651;28;20041;-75
2023/01/06 07:11:06;;;;;;;13.68;12.27;;;9.50;99.90;;;;;;5015520;28;20083;-74
2023/01/06 07:13:32;;;;;;;13.57;12.27;;;9.50;99.90;;;;;;5009162;28;20037;-74
2023/01/06 07:15:57;;;;;;;13.98;11.25;;;9.50;99.90;;;;;;5000708;28;20038;-75
2023/01/06 07:18:23;;;;;;;12.85;11.65;;;9.50;99.90;;;;;;5016104;28;20106;-78
2023/01/06 07:20:52;;;;;;;13.38;11.98;;;9.50;99.90;;;;;;5018735;28;20135;-75
2023/01/06 07:23:18;;;;;;;14.57;12.10;;;9.50;99.90;;;;;;5009348;28;20095;-75
2023/01/06 07:25:44;;;;;;;13.07;11.88;;;9.50;99.90;;;;;;5016252;28;20045;-76
2023/01/06 07:28:10;;;;;;;13.07;11.80;;;9.60;99.90;;;;;;4997305;28;20044;-76
2023/01/06 07:30:36;;;;;;;13.30;12.07;;;9.50;99.90;;;;;;4989981;28;20052;-77
2023/01/06 07:33:03;;;;;;;12.20;11.02;;;9.50;99.90;;;;;;5025497;28;20491;-78
2023/01/06 07:35:29;;;;;;;12.90;11.70;;;9.60;99.90;;;;;;5015486;28;20041;-77
2023/01/06 07:37:54;;;;;;;12.95;11.65;;;9.60;99.90;;;;;;5022719;28;20034;-77
2023/01/06 07:40:20;;;;;;;13.15;11.82;;;9.60;99.90;;;;;;4997540;28;20404;-75
2023/01/06 07:42:46;;;;;;;12.50;11.32;;;9.60;99.90;;;;;;5014629;28;20095;-77
2023/01/06 07:45:15;;;;;;;13.20;11.80;;;9.60;99.90;;;;;;4999137;28;20045;-76
2023/01/06 07:47:40;;;;;;;11.98;10.90;;;9.60;99.90;;;;;;4998052;28;20513;-75
2023/01/06 07:50:06;;;;;;;11.50;10.30;;;9.60;99.90;;;;;;4998105;28;20044;-77
2023/01/06 07:52:32;;;;;;;8.73;7.93;;;9.60;99.90;;;;;;4998313;28;20622;-76
2023/01/06 07:54:58;;;;;;;8.80;7.90;;;9.70;99.90;;;;;;4987422;28;20141;-75
2023/01/06 07:57:28;;;;;;;6.45;5.72;;;9.60;99.90;;;;;;5008231;28;20045;-75
2023/01/06 07:59:54;;;;;;;7.00;6.30;;;9.60;99.90;;;;;;5014189;28;20029;-76
2023/01/06 08:02:20;;;;;;;7.13;5.20;;;9.60;99.90;;;;;;5000082;28;20625;-76
2023/01/06 08:04:46;;;;;;;5.50;5.00;;;9.60;99.90;;;;;;5002507;28;20049;-77
2023/01/06 08:07:13;;;;;;;5.13;4.63;;;9.60;99.90;;;;;;5019442;28;20127;-76
2023/01/06 08:09:38;;;;;;;6.50;4.28;;;9.60;99.90;;;;;;4997252;28;20037;-76
2023/01/06 08:12:04;;;;;;;9.50;3.80;;;9.60;99.90;;;;;;5016561;28;20455;-76
2023/01/06 08:14:32;;;;;;;7.65;3.45;;;9.50;99.90;;;;;;5005068;28;20034;-76
2023/01/06 08:16:58;;;;;;;6.07;2.60;;;9.50;99.90;;;;;;5019741;28;20128;-76
2023/01/06 08:19:23;;;;;;;5.90;2.30;;;9.50;99.90;;;;;;4990679;28;20124;-76
2023/01/06 08:21:49;;;;;;;6.40;2.25;;;9.40;99.90;;;;;;4997441;28;20056;-76
2023/01/06 08:24:15;;;;;;;3.78;1.50;;;9.30;99.90;;;;;;4997980;28;20265;-76
2023/01/06 08:26:40;;;;;;;6.35;2.00;;;9.20;99.90;;;;;;4997373;28;20037;-76
2023/01/06 08:29:07;;;;;;;9.95;2.72;;;9.10;99.90;;;;;;4997419;28;20046;-76
2023/01/06 08:31:33;;;;;;;4.95;1.90;;;9.00;99.90;;;;;;4996490;28;20458;-77
2023/01/06 08:33:59;;;;;;;5.95;2.35;;;8.80;99.90;;;;;;5005094;28;20041;-76
2023/01/06 08:36:25;;;;;;;6.40;1.80;;;8.80;99.90;;;;;;4997559;28;20113;-76
2023/01/06 08:38:51;;;;;;;4.70;1.45;;;8.70;99.90;;;;;;4997329;28;20077;-76
2023/01/06 08:41:17;;;;;;;6.15;1.63;;;8.70;99.90;;;;;;4997560;28;20057;-76
2023/01/06 08:43:44;;;;;;;9.07;1.90;;;8.60;99.90;;;;;;4997994;28;20396;-77
2023/01/06 08:46:18;;;;;;;4.53;1.33;;;8.50;99.90;;;;;;5012101;28;20115;-77
2023/01/06 08:48:46;;;;;;;7.90;1.70;;;8.50;99.90;;;;;;4998194;28;20565;-76
2023/01/06 08:51:14;;;;;;;8.05;1.90;;;8.50;99.90;;;;;;4998121;28;20095;-76
2023/01/06 08:53:40;;;;;;;9.15;1.85;;;8.50;99.90;;;;;;4997781;28;20045;-76
2023/01/06 08:56:28;;;;;;;9.10;2.22;;;8.40;99.90;;;;;;5013741;28;20507;-77
2023/01/06 08:59:00;;;;;;;7.55;1.92;;;8.40;99.90;;;;;;5029980;28;20069;-77
2023/01/06 09:01:34;;;;;;;8.93;1.95;;;8.40;99.90;;;;;;4997372;28;20030;-77
2023/01/06 09:04:04;;;;;;;11.45;2.33;;;8.40;99.90;;;;;;4997220;28;20051;-76
2023/01/06 09:06:29;;;;;;;9.65;2.03;;;8.30;99.90;;;;;;4997841;28;20037;-76
2023/01/06 09:08:56;;;;;;;8.57;1.92;;;8.30;99.90;;;;;;4995796;28;20373;-76
2023/01/06 09:11:23;;;;;;;8.73;1.70;;;8.30;99.90;;;;;;4993124;28;20037;-76
2023/01/06 09:13:49;;;;;;;7.53;1.90;;;8.30;99.90;;;;;;4997147;28;20033;-76
2023/01/06 09:16:15;;;;;;;8.73;1.70;;;8.30;99.90;;;;;;4997476;28;20376;-77
2023/01/06 09:18:47;;;;;;;10.05;2.10;;;8.30;99.90;;;;;;4996109;28;20096;-77
2023/01/06 09:21:13;;;;;;;11.65;1.88;;;8.30;99.90;;;;;;4993547;28;20047;-76
2023/01/06 09:23:39;;;;;;;10.05;2.10;;;8.30;99.90;;;;;;5013546;28;20034;-76
2023/01/06 09:26:05;;;;;;;7.93;2.05;;;8.30;99.90;;;;;;4997297;28;20166;-77
2023/01/06 09:28:31;;;;;;;9.65;1.80;;;8.40;99.90;;;;;;4996904;28;20095;-78
2023/01/06 09:30:56;;;;;;;10.60;2.75;;;8.40;99.90;;;;;;5014553;28;20195;-77
2023/01/06 09:33:22;;;;;;;7.75;1.73;;;8.40;99.90;;;;;;4999068;28;20128;-77
2023/01/06 09:35:48;;;;;;;8.40;1.40;;;8.40;99.90;;;;;;5000126;28;20038;-76
2023/01/06 09:38:14;;;;;;;8.60;1.75;;;8.40;99.90;;;;;;5016882;28;20033;-77
2023/01/06 09:41:02;;;;;;;8.98;1.90;;;8.40;99.90;;;;;;5016962;28;20041;-77
2023/01/06 09:43:42;;;;;;;7.03;1.63;;;8.40;99.90;;;;;;5034646;28;20052;-77
2023/01/06 09:46:09;;;;;;;7.43;2.10;;;8.40;99.90;;;;;;5000543;28;20504;-77
2023/01/06 09:48:41;;;;;;;9.00;1.52;;;8.40;99.90;;;;;;4999383;28;20042;-78
2023/01/06 09:51:12;;;;;;;9.75;1.75;;;8.50;99.90;;;;;;5015196;23;20045;-77
2023/01/06 09:53:46;;;;;;;5.82;1.40;;;8.50;99.90;;;;;;5001228;28;20046;-76
2023/01/06 09:56:18;;;;;;;9.30;2.20;;;8.60;99.90;;;;;;5001483;28;20034;-78
2023/01/06 09:59:10;;;;;;;12.15;2.25;;;8.70;99.90;;;;;;5017017;28;20499;-76
2023/01/06 10:01:45;;;;;;;8.60;1.48;;;8.70;99.90;;;;;;4981294;28;20649;-77
2023/01/06 10:04:17;;;;;;;9.38;1.52;;;8.80;99.90;;;;;;4981760;28;20038;-76
2023/01/06 10:07:12;;;;;;;7.97;1.40;;;8.80;99.90;;;;;;4997499;28;20041;-76
2023/01/06 10:09:58;;;;;;;7.15;1.27;;;8.80;99.90;;;;;;4997359;28;20081;-77
2023/01/06 10:12:38;;;;;;;6.95;1.50;;;8.80;99.90;;;;;;4987489;28;20112;-76
2023/01/06 10:15:19;;;;;;;6.43;1.60;;;8.90;99.90;;;;;;4997463;28;20555;-77
2023/01/06 10:18:09;;;;;;;6.82;1.50;;;8.90;99.90;;;;;;4980556;28;20125;-77
2023/01/06 10:20:57;;;;;;;6.13;1.50;;;8.90;99.90;;;;;;4996775;28;20499;-77
2023/01/06 10:23:28;;;;;;;9.95;1.95;;;8.90;99.90;;;;;;4981073;28;20054;-77
2023/01/06 10:26:19;;;;;;;7.10;1.40;;;9.00;99.90;;;;;;4996455;28;20522;-77
2023/01/06 10:28:53;;;;;;;10.57;2.17;;;9.00;99.90;;;;;;4985908;28;20057;-76
2023/01/06 10:31:26;;;;;;;7.88;2.00;;;9.00;99.90;;;;;;4981035;28;20042;-78
2023/01/06 10:33:55;;;;;;;8.32;1.85;;;9.00;99.90;;;;;;4980766;28;20053;-77
2023/01/06 10:36:41;;;;;;;9.48;2.00;;;9.10;99.90;;;;;;4996789;28;20041;-77
2023/01/06 10:39:20;;;;;;;8.27;2.17;;;9.10;99.90;;;;;;4978928;28;20121;-77
2023/01/06 10:41:52;;;;;;;6.65;1.55;;;9.10;99.90;;;;;;4992057;28;20042;-77
2023/01/06 10:44:19;;;;;;;8.93;1.90;;;9.20;99.90;;;;;;4996677;28;20492;-77
2023/01/06 10:46:46;;;;;;;6.15;1.50;;;9.20;99.90;;;;;;4997240;28;20063;-77
2023/01/06 10:49:17;;;;;;;8.73;1.67;;;9.30;99.90;;;;;;4996003;28;20115;-76
2023/01/06 10:51:51;;;;;;;7.35;1.77;;;9.30;99.90;;;;;;4996421;28;20046;-77
2023/01/06 10:54:21;;;;;;;8.05;1.98;;;9.30;99.90;;;;;;4992279;28;20034;-77
2023/01/06 10:56:59;;;;;;;7.13;1.33;;;9.40;99.90;;;;;;4992682;28;20033;-78
2023/01/06 10:59:24;;;;;;;10.45;1.60;;;9.40;99.90;;;;;;4996228;28;20046;-76
2023/01/06 11:01:55;;;;;;;9.32;1.42;;;9.40;99.90;;;;;;4996220;28;20049;-76
2023/01/06 11:04:23;;;;;;;8.30;1.95;;;9.40;99.90;;;;;;4988005;28;20488;-77
2023/01/06 11:06:56;;;;;;;6.70;1.80;;;9.40;99.90;;;;;;4992844;28;20464;-77
2023/01/06 11:09:30;;;;;;;6.50;1.50;;;9.50;99.90;;;;;;4980131;28;20091;-77
2023/01/06 11:11:59;;;;;;;6.72;1.10;;;9.50;99.90;;;;;;4996606;28;20478;-77
2023/01/06 11:14:29;;;;;;;9.05;1.50;;;9.50;99.90;;;;;;4990371;28;20392;-76
2023/01/06 11:17:02;;;;;;;7.00;1.60;;;9.50;99.90;;;;;;4993500;28;20108;-77
2023/01/06 11:20:02;;;;;;;6.65;1.17;;;9.60;99.90;;;;;;4995766;28;20038;-77
2023/01/06 11:22:36;;;;;;;6.20;1.35;;;9.60;99.90;;;;;;4996911;28;20085;-77
2023/01/06 11:25:19;;;;;;;7.13;1.23;;;9.60;99.90;;;;;;4996437;28;20104;-78
2023/01/06 11:27:46;;;;;;;5.35;1.40;;;9.70;99.90;;;;;;4995006;28;20050;-76
2023/01/06 11:30:25;;;;;;;6.65;1.33;;;9.90;99.90;;;;;;4971151;28;20030;-77
2023/01/06 11:32:51;;;;;;;4.70;1.25;;;10.00;99.90;;;;;;4979596;28;20046;-77
2023/01/06 11:35:20;;;;;;;6.20;1.00;;;10.20;99.90;;;;;;4996263;28;20392;-78
2023/01/06 11:37:46;;;;;;;4.97;1.48;;;10.40;99.90;;;;;;4980052;28;20042;-77
2023/01/06 11:40:17;;;;;;;4.63;1.05;;;10.60;99.90;;;;;;4993432;28;20045;-77
2023/01/06 11:42:46;;;;;;;7.90;1.48;;;10.70;99.90;;;;;;4990864;28;20042;-78
2023/01/06 11:45:34;;;;;;;5.72;1.33;;;11.00;99.90;;;;;;4988157;28;20495;-78
2023/01/06 11:48:11;;;;;;;6.65;1.08;;;11.30;99.90;;;;;;4996049;28;20042;-76
2023/01/06 11:50:36;;;;;;;7.82;1.30;;;11.50;99.90;;;;;;4994488;28;20427;-76
2023/01/06 11:53:16;;;;;;;5.25;1.00;;;11.80;99.90;;;;;;4976450;28;20046;-77
2023/01/06 11:56:20;;;;;;;9.43;1.55;;;11.90;99.90;;;;;;4991241;28;20085;-77
2023/01/06 11:58:54;;;;;;;6.72;1.17;;;12.00;99.90;;;;;;4992143;28;20042;-78
2023/01/06 12:01:45;;;;;;;10.23;1.73;;;12.10;99.90;;;;;;4985582;28;20034;-76
2023/01/06 12:04:35;;;;;;;3.42;1.05;;;12.00;99.90;;;;;;4993315;28;20446;-77
2023/01/06 12:07:16;;;;;;;7.60;1.58;;;12.00;99.90;;;;;;4994397;28;20420;-77
2023/01/06 12:09:44;;;;;;;4.07;1.27;;;12.00;99.90;;;;;;4990847;28;20069;-76
2023/01/06 12:12:15;;;;;;;5.70;1.10;;;11.70;99.90;;;;;;4991481;28;20041;-77
2023/01/06 12:14:40;;;;;;;7.18;1.33;;;11.50;99.90;;;;;;4994809;28;20396;-76
2023/01/06 12:17:43;;;;;;;8.32;1.45;;;11.30;99.90;;;;;;4993807;28;20036;-76
2023/01/06 12:20:21;;;;;;;6.32;1.40;;;11.10;99.90;;;;;;4966651;28;20099;-77
2023/01/06 12:22:51;;;;;;;8.63;1.50;;;10.90;99.90;;;;;;4991307;28;20400;-77
2023/01/06 12:25:24;;;;;;;6.07;1.40;;;10.80;99.90;;;;;;4985780;28;20092;-77
2023/01/06 12:27:56;;;;;;;3.97;1.05;;;10.80;99.90;;;;;;4978233;28;20041;-75
2023/01/06 12:30:28;;;;;;;7.80;1.60;;;10.80;99.90;;;;;;4988948;28;20035;-77
2023/01/06 12:32:57;;;;;;;6.40;1.58;;;10.80;99.90;;;;;;4991772;28;20042;-76
2023/01/06 12:35:28;;;;;;;5.90;1.00;;;10.70;99.90;;;;;;4994544;28;20569;-77
2023/01/06 12:38:13;;;;;;;5.28;1.73;;;10.70;99.90;;;;;;4977295;28;20033;-77
2023/01/06 12:40:49;;;;;;;6.38;1.10;;;10.80;99.90;;;;;;4989742;28;20041;-77
2023/01/06 12:43:21;;;;;;;10.65;2.45;;;10.80;99.90;;;;;;4975147;28;20097;-77
2023/01/06 12:46:18;;;;;;;7.60;0.83;;;10.70;99.90;;;;;;4975293;28;20389;-77
2023/01/06 12:48:51;;;;;;;5.68;1.27;;;10.70;99.90;;;;;;4986286;28;20046;-76
2023/01/06 12:51:32;;;;;;;7.80;1.60;;;10.60;99.90;;;;;;4965777;28;20046;-77
2023/01/06 12:54:09;;;;;;;5.57;1.30;;;10.50;99.90;;;;;;4977820;28;20034;-77
2023/01/06 12:56:47;;;;;;;7.53;1.63;;;10.40;99.90;;;;;;4994277;28;20048;-77
2023/01/06 12:59:25;;;;;;;7.70;1.95;;;10.30;99.90;;;;;;4994547;28;20464;-77
2023/01/06 13:02:28;;;;;;;8.02;1.85;;;10.20;99.90;;;;;;4978101;28;20049;-77
2023/01/06 13:05:18;;;;;;;6.43;1.63;;;10.10;99.90;;;;;;4969269;28;20068;-76
2023/01/06 13:08:04;;;;;;;6.43;1.80;;;10.00;99.90;;;;;;4997639;28;20046;-77
2023/01/06 13:10:41;;;;;;;4.40;1.40;;;9.90;99.90;;;;;;4997965;28;20042;-77
2023/01/06 13:13:38;;;;;;;5.75;1.08;;;9.80;99.90;;;;;;4971879;28;20049;-75